createdAt,value
2018-09-05T00:00:08.468Z,7.80
2018-09-05T00:02:36.009Z,8.00
2018-09-05T00:05:04.259Z,8.03
2018-09-05T00:07:32.693Z,8.27
2018-09-05T00:10:00.363Z,7.27
2018-09-05T00:12:28.719Z,7.87
2018-09-05T00:14:56.498Z,7.57
2018-09-05T00:17:24.018Z,8.03
2018-09-05T00:19:51.721Z,7.63
2018-09-05T00:22:19.316Z,8.47
2018-09-05T00:24:46.850Z,9.67
2018-09-05T00:27:14.438Z,10.73
2018-09-05T00:29:41.999Z,10.47
2018-09-05T00:32:09.637Z,11.37
2018-09-05T00:34:37.137Z,11.03
2018-09-05T00:37:04.677Z,12.47
2018-09-05T00:39:32.171Z,12.50
2018-09-05T00:42:00.332Z,12.70
2018-09-05T00:44:27.890Z,13.17
2018-09-05T00:46:55.397Z,12.90
2018-09-05T00:49:22.961Z,13.37
2018-09-05T00:51:50.727Z,13.03
2018-09-05T00:54:18.373Z,13.63
2018-09-05T00:56:45.986Z,15.00
2018-09-05T00:59:14.476Z,15.60
2018-09-05T01:01:42.072Z,14.70
2018-09-05T01:04:09.497Z,15.13
2018-09-05T01:06:36.989Z,16.80
2018-09-05T01:09:06.363Z,17.17
2018-09-05T01:11:33.929Z,17.70
2018-09-05T01:14:01.437Z,19.03
2018-09-05T01:16:29.807Z,18.03
2018-09-05T01:18:57.451Z,19.53
2018-09-05T01:21:24.985Z,19.73
2018-09-05T01:23:52.603Z,18.70
2018-09-05T01:26:20.179Z,18.03
2018-09-05T01:28:47.714Z,17.10
2018-09-05T01:31:15.267Z,18.43
2018-09-05T01:33:43.612Z,17.27
2018-09-05T01:36:16.085Z,17.13
2018-09-05T01:38:44.727Z,16.57
2018-09-05T01:41:13.382Z,17.13
2018-09-05T01:43:41.568Z,17.93
2018-09-05T01:46:09.252Z,17.13
2018-09-05T01:48:37.562Z,17.13
2018-09-05T01:51:05.122Z,18.40
2018-09-05T01:53:32.689Z,20.37
2018-09-05T01:56:00.622Z,19.20
2018-09-05T01:58:28.612Z,17.47
2018-09-05T02:00:56.351Z,18.90
2018-09-05T02:03:25.185Z,18.00
2018-09-05T02:05:53.234Z,15.13
2018-09-05T02:08:20.847Z,16.83
2018-09-05T02:10:48.800Z,18.63
2018-09-05T02:13:16.305Z,18.27
2018-09-05T02:15:43.906Z,17.87
2018-09-05T02:18:11.744Z,18.40
2018-09-05T02:20:40.253Z,19.30
2018-09-05T02:23:07.939Z,16.30
2018-09-05T02:25:35.809Z,18.43
2018-09-05T02:28:04.953Z,18.00
2018-09-05T02:30:32.866Z,17.97
2018-09-05T02:33:00.867Z,17.50
2018-09-05T02:35:29.418Z,16.43
2018-09-05T02:37:57.465Z,18.37
2018-09-05T02:40:25.429Z,16.60
2018-09-05T02:42:53.314Z,19.27
2018-09-05T02:45:21.164Z,19.30
2018-09-05T02:47:49.043Z,19.30
2018-09-05T02:50:17.142Z,18.20
2018-09-05T02:52:45.800Z,18.77
2018-09-05T02:56:19.711Z,19.53
2018-09-05T02:58:47.580Z,19.23
2018-09-05T03:01:15.913Z,20.17
2018-09-05T03:03:44.303Z,19.87
2018-09-05T03:06:12.396Z,19.93
2018-09-05T03:08:40.494Z,20.10
2018-09-05T03:11:09.249Z,22.83
2018-09-05T03:13:37.299Z,22.97
2018-09-05T03:16:06.269Z,23.50
2018-09-05T03:18:34.286Z,25.10
2018-09-05T03:21:02.619Z,23.93
2018-09-05T03:23:31.606Z,23.53
2018-09-05T03:25:59.133Z,23.30
2018-09-05T03:28:58.852Z,24.10
2018-09-05T03:31:26.468Z,22.27
2018-09-05T03:33:54.165Z,23.00
2018-09-05T03:36:21.771Z,22.10
2018-09-05T03:38:49.946Z,22.87
2018-09-05T03:41:17.704Z,20.73
2018-09-05T03:43:45.521Z,20.00
2018-09-05T03:46:14.319Z,20.50
2018-09-05T03:48:42.796Z,20.13
2018-09-05T03:51:11.473Z,19.40
2018-09-05T03:53:39.539Z,20.37
2018-09-05T03:56:08.151Z,19.73
2018-09-05T03:58:35.888Z,17.80
2018-09-05T04:01:08.458Z,19.23
2018-09-05T04:03:37.607Z,20.37
2018-09-05T04:06:05.269Z,17.27
2018-09-05T04:08:33.146Z,18.33
2018-09-05T04:11:00.724Z,19.33
2018-09-05T04:13:28.384Z,19.50
2018-09-05T04:15:55.997Z,18.37
2018-09-05T04:18:23.580Z,18.73
2018-09-05T04:20:51.195Z,20.27
2018-09-05T04:23:18.786Z,19.00
2018-09-05T04:25:46.815Z,19.73
2018-09-05T04:28:14.523Z,20.47
2018-09-05T04:30:42.165Z,21.60
2018-09-05T04:33:10.300Z,22.13
2018-09-05T04:35:40.273Z,23.30
2018-09-05T04:38:08.301Z,23.17
2018-09-05T04:40:36.174Z,23.03
2018-09-05T04:43:04.711Z,24.00
2018-09-05T04:45:32.621Z,22.80
2018-09-05T04:48:00.643Z,24.87
2018-09-05T04:50:28.554Z,24.43
2018-09-05T04:52:56.327Z,24.50
2018-09-05T04:55:24.290Z,24.43
2018-09-05T04:57:52.349Z,24.10
2018-09-05T05:00:20.236Z,25.70
2018-09-05T05:02:48.012Z,25.53
2018-09-05T05:07:57.103Z,29.37
2018-09-05T05:13:09.955Z,27.43
2018-09-05T05:15:42.006Z,26.87
2018-09-05T05:18:10.488Z,27.43
2018-09-05T05:20:45.561Z,29.43
2018-09-05T05:23:13.962Z,30.00
2018-09-05T05:35:01.394Z,31.07
2018-09-05T05:40:19.543Z,32.00
2018-09-05T05:46:16.188Z,28.85
2018-09-05T05:51:42.923Z,33.43
2018-09-05T05:54:12.592Z,30.17
2018-09-05T05:56:42.784Z,32.17
2018-09-05T05:59:14.705Z,31.20
2018-09-05T06:57:25.728Z,23.47
2018-09-05T06:59:54.005Z,25.70
2018-09-05T07:02:22.278Z,26.30
2018-09-05T07:04:50.811Z,25.63
2018-09-05T07:07:19.206Z,23.50
2018-09-05T07:09:48.074Z,23.10
2018-09-05T07:12:16.313Z,22.33
2018-09-05T07:14:45.922Z,21.40
2018-09-05T07:17:15.360Z,21.23
2018-09-05T07:19:43.131Z,22.13
2018-09-05T07:22:11.159Z,21.20
2018-09-05T07:24:39.944Z,22.00
2018-09-05T07:27:08.089Z,21.80
2018-09-05T07:29:36.509Z,22.30
2018-09-05T07:32:04.530Z,21.53
2018-09-05T07:34:32.957Z,20.10
2018-09-05T07:37:02.239Z,20.83
2018-09-05T07:39:37.771Z,21.10
2018-09-05T07:42:07.372Z,20.53
2018-09-05T07:44:35.422Z,19.30
2018-09-05T07:47:03.405Z,18.77
2018-09-05T07:49:31.940Z,19.60
2018-09-05T07:52:00.136Z,18.83
2018-09-05T07:54:28.292Z,19.20
2018-09-05T08:32:05.366Z,12.80
2018-09-05T08:34:33.233Z,11.83
2018-09-05T08:37:04.218Z,11.00
2018-09-05T09:24:29.849Z,9.03
2018-09-05T09:26:57.709Z,8.47
2018-09-05T09:29:25.875Z,8.37
2018-09-05T09:31:54.258Z,8.63
2018-09-05T09:34:22.392Z,9.23
2018-09-05T09:36:50.113Z,9.10
2018-09-05T09:39:18.383Z,8.17
2018-09-05T09:41:46.643Z,8.87
2018-09-05T09:44:14.975Z,9.33
2018-09-05T09:46:43.174Z,8.83
2018-09-05T09:49:12.001Z,8.07
2018-09-05T09:51:39.769Z,7.43
2018-09-05T09:54:08.122Z,6.97
2018-09-05T09:56:36.685Z,7.10
2018-09-05T09:59:05.257Z,7.40
2018-09-05T10:02:00.061Z,6.50
2018-09-05T10:04:35.997Z,6.80
2018-09-05T10:07:19.295Z,6.17
2018-09-05T10:09:53.155Z,6.07
2018-09-05T10:12:27.043Z,6.03
2018-09-05T10:15:00.148Z,6.60
2018-09-05T10:17:31.655Z,6.43
2018-09-05T10:19:59.961Z,6.00
2018-09-05T10:22:28.080Z,6.10
2018-09-05T10:24:59.841Z,6.13
2018-09-05T10:30:06.029Z,6.33
2018-09-05T10:32:35.259Z,5.63
2018-09-05T10:35:03.643Z,6.00
2018-09-05T10:40:40.525Z,5.30
2018-09-05T10:43:22.910Z,7.27
2018-09-05T10:45:55.765Z,7.47
2018-09-05T10:48:33.845Z,6.70
2018-09-05T10:53:56.969Z,6.40
2018-09-05T10:56:24.728Z,6.33
2018-09-05T10:58:54.359Z,6.10
2018-09-05T11:01:22.575Z,5.67
2018-09-05T11:06:40.657Z,5.53
2018-09-05T11:09:11.632Z,6.20
2018-09-05T11:11:40.237Z,6.20
2018-09-05T11:14:09.121Z,5.70
2018-09-05T11:16:38.503Z,5.63
2018-09-05T11:19:09.289Z,5.27
2018-09-05T11:21:37.695Z,5.40
2018-09-05T11:24:06.189Z,5.57
2018-09-05T12:56:41.030Z,4.67
2018-09-05T12:59:10.391Z,4.87
2018-09-05T13:01:47.456Z,4.70
2018-09-05T13:04:35.588Z,4.67
2018-09-05T13:07:05.764Z,4.57
2018-09-05T13:09:39.946Z,4.57
2018-09-05T13:12:08.978Z,4.60
2018-09-05T13:16:17.260Z,4.20
2018-09-05T13:18:53.118Z,4.33
2018-09-05T13:24:19.699Z,3.73
2018-09-05T13:26:52.639Z,4.43
2018-09-05T13:29:24.958Z,4.33
2018-09-05T13:32:05.995Z,4.37
2018-09-05T13:34:39.455Z,4.60
2018-09-05T13:37:12.116Z,4.60
2018-09-05T13:39:42.185Z,4.60
2018-09-05T13:42:26.242Z,4.43
2018-09-05T13:50:58.713Z,4.50
2018-09-05T13:53:46.870Z,4.80
2018-09-05T13:56:17.179Z,4.40
2018-09-05T13:58:55.034Z,4.43
2018-09-05T14:01:23.455Z,4.60
2018-09-05T14:03:54.468Z,4.23
2018-09-05T14:06:22.803Z,4.60
2018-09-05T14:08:55.979Z,4.17
2018-09-05T14:11:45.121Z,4.03
2018-09-05T14:15:00.777Z,4.43
2018-09-05T15:48:16.718Z,4.27
2018-09-05T15:50:44.879Z,4.30
2018-09-05T15:53:13.294Z,4.77
2018-09-05T15:55:41.484Z,4.47
2018-09-05T15:58:09.781Z,4.17
2018-09-05T16:00:38.403Z,4.17
2018-09-05T16:03:06.545Z,4.50
2018-09-05T16:05:35.905Z,4.50
2018-09-05T16:08:04.517Z,4.40
2018-09-05T16:10:33.315Z,4.40
2018-09-05T16:13:01.311Z,4.67
2018-09-05T16:15:31.304Z,4.20
2018-09-05T16:18:00.050Z,4.30
2018-09-05T16:20:35.957Z,3.95
2018-09-05T16:23:04.050Z,4.50
2018-09-05T16:25:32.704Z,4.27
2018-09-05T16:28:01.792Z,4.50
2018-09-05T16:30:29.965Z,4.17
2018-09-05T16:32:58.860Z,4.37
2018-09-05T16:35:27.369Z,4.67
2018-09-05T16:37:55.861Z,4.40
2018-09-05T16:40:24.916Z,4.70
2018-09-05T16:42:54.933Z,4.30
2018-09-05T16:45:23.646Z,3.73
2018-09-05T16:47:54.474Z,4.40
2018-09-05T16:50:23.309Z,4.37
2018-09-05T16:52:51.390Z,4.43
2018-09-05T16:55:20.771Z,4.40
2018-09-05T16:57:49.766Z,4.40
2018-09-05T17:00:19.496Z,4.03
2018-09-05T17:02:58.962Z,4.37
2018-09-05T17:05:28.159Z,4.67
2018-09-05T17:07:57.472Z,4.03
2018-09-05T17:10:27.828Z,4.43
2018-09-05T17:12:56.791Z,4.50
2018-09-05T17:15:27.933Z,5.03
2018-09-05T17:17:56.392Z,4.80
2018-09-05T17:20:26.469Z,4.60
2018-09-05T17:22:59.648Z,4.83
2018-09-05T17:25:28.348Z,4.83
2018-09-05T17:27:57.784Z,4.77
2018-09-05T17:30:26.075Z,4.80
2018-09-05T17:32:55.971Z,4.90
2018-09-05T17:35:25.112Z,4.90
2018-09-05T17:37:54.850Z,5.00
2018-09-05T17:40:24.110Z,4.87
2018-09-05T17:42:52.286Z,4.43
2018-09-05T17:45:20.690Z,4.93
2018-09-05T17:47:49.528Z,4.53
2018-09-05T17:50:17.820Z,4.30
2018-09-05T17:52:46.666Z,4.30
2018-09-05T17:55:16.305Z,4.87
2018-09-05T17:57:45.550Z,4.63
2018-09-05T18:00:14.061Z,4.70
2018-09-05T18:02:42.799Z,4.70
2018-09-05T18:05:12.141Z,5.10
2018-09-05T18:07:40.331Z,4.63
2018-09-05T18:10:09.110Z,4.80
2018-09-05T18:12:38.333Z,5.27
2018-09-05T18:15:06.849Z,4.93
2018-09-05T18:17:35.283Z,5.00
2018-09-05T18:20:06.448Z,5.73
2018-09-05T18:22:34.627Z,5.13
2018-09-05T18:25:04.225Z,5.27
2018-09-05T18:27:32.759Z,5.30
2018-09-05T18:30:01.990Z,5.37
2018-09-05T18:32:30.703Z,5.60
2018-09-05T18:34:59.229Z,5.00
2018-09-05T18:37:28.849Z,5.37
2018-09-05T18:39:57.390Z,5.37
2018-09-05T18:42:53.019Z,5.73
2018-09-05T18:45:21.669Z,5.63
2018-09-05T18:47:50.137Z,5.00
2018-09-05T18:50:18.467Z,5.67
2018-09-05T18:52:46.872Z,5.83
2018-09-05T19:12:32.388Z,6.00
2018-09-05T19:15:00.726Z,6.30
2018-09-05T19:17:29.434Z,6.43
2018-09-05T19:19:57.536Z,6.10
2018-09-05T19:22:25.644Z,5.97
2018-09-05T19:24:54.599Z,6.03
2018-09-05T19:27:23.115Z,6.57
2018-09-05T19:29:51.230Z,5.93
2018-09-05T19:32:20.164Z,6.07
2018-09-05T19:34:48.290Z,6.10
2018-09-05T19:37:16.236Z,6.30
2018-09-05T19:39:44.144Z,6.07
2018-09-05T19:42:12.544Z,5.70
2018-09-05T19:44:40.975Z,6.67
2018-09-05T19:47:09.913Z,6.10
2018-09-05T19:49:38.072Z,6.00
2018-09-05T19:52:05.892Z,5.90
2018-09-05T19:54:43.736Z,5.90
2018-09-05T19:57:12.009Z,6.07
2018-09-05T19:59:40.271Z,5.97
2018-09-05T20:02:08.413Z,6.23
2018-09-05T20:04:36.433Z,5.97
2018-09-05T20:07:04.469Z,6.20
2018-09-05T20:09:32.718Z,6.40
2018-09-05T20:12:00.737Z,5.67
2018-09-05T20:14:28.933Z,6.10
2018-09-05T20:16:56.901Z,5.80
2018-09-05T20:19:24.945Z,6.53
2018-09-05T20:21:52.899Z,6.20
2018-09-05T20:24:21.097Z,6.83
2018-09-05T20:26:48.694Z,6.10
2018-09-05T20:29:16.294Z,6.30
2018-09-05T20:31:44.227Z,6.67
2018-09-05T20:34:11.804Z,6.23
2018-09-05T20:36:39.478Z,6.57
2018-09-05T20:39:09.176Z,6.57
2018-09-05T20:41:36.727Z,6.40
2018-09-05T20:44:05.242Z,6.60
2018-09-05T20:46:33.212Z,5.90
2018-09-05T20:49:00.651Z,6.57
2018-09-05T20:51:28.346Z,6.03
2018-09-05T20:53:56.184Z,6.17
2018-09-05T20:56:24.295Z,6.43
2018-09-05T20:58:57.420Z,6.40
2018-09-05T21:01:25.876Z,6.10
2018-09-05T21:03:53.403Z,6.53
2018-09-05T21:06:21.353Z,6.87
2018-09-05T21:08:49.276Z,6.00
2018-09-05T21:11:16.928Z,6.30
2018-09-05T21:14:04.110Z,6.27
2018-09-05T21:16:36.104Z,6.20
2018-09-05T21:19:05.891Z,6.07
2018-09-05T21:21:33.451Z,6.23
2018-09-05T21:24:01.106Z,6.23
2018-09-05T21:26:28.643Z,7.03
2018-09-05T21:28:56.098Z,6.90
2018-09-05T21:31:24.007Z,6.20
2018-09-05T21:33:51.688Z,7.00
2018-09-05T21:36:19.530Z,6.40
2018-09-05T21:38:47.144Z,6.83
2018-09-05T21:41:15.774Z,6.20
2018-09-05T21:43:43.478Z,6.30
2018-09-05T21:46:11.032Z,6.20
2018-09-05T21:48:38.846Z,6.70
2018-09-05T21:51:06.503Z,6.50
2018-09-05T21:53:34.134Z,5.43
2018-09-05T21:56:01.776Z,6.03
2018-09-05T21:58:29.339Z,7.00
2018-09-05T22:00:57.025Z,5.73
2018-09-05T22:03:25.435Z,6.43
2018-09-05T22:05:53.186Z,6.00
2018-09-05T22:08:20.800Z,5.87
2018-09-05T22:10:48.404Z,5.93
2018-09-05T22:13:16.068Z,6.40
2018-09-05T22:15:45.463Z,6.27
2018-09-05T22:18:13.272Z,5.67
2018-09-05T22:20:40.829Z,5.87
2018-09-05T22:23:08.987Z,5.67
2018-09-05T22:25:36.628Z,5.77
2018-09-05T22:28:04.183Z,5.67
2018-09-05T22:30:32.396Z,5.50
2018-09-05T22:33:00.380Z,5.97
2018-09-05T22:35:28.296Z,5.93
2018-09-05T22:37:55.987Z,5.83
2018-09-05T22:40:23.544Z,5.93
2018-09-05T22:43:02.706Z,5.23
2018-09-05T22:45:41.546Z,5.50
2018-09-05T22:48:26.297Z,5.77
2018-09-05T22:52:14.515Z,6.00
2018-09-05T22:55:13.046Z,5.67
2018-09-05T22:58:11.737Z,4.93
2018-09-05T23:00:47.917Z,5.43
2018-09-05T23:03:36.622Z,5.57
2018-09-05T23:06:17.768Z,5.63
2018-09-05T23:08:46.540Z,5.63
2018-09-05T23:11:56.054Z,5.57
2018-09-05T23:14:35.707Z,6.40
2018-09-05T23:17:14.695Z,5.67
2018-09-05T23:22:08.577Z,5.87
2018-09-05T23:24:36.135Z,5.43
2018-09-05T23:27:04.708Z,5.73
2018-09-05T23:29:32.242Z,5.77
2018-09-05T23:31:59.753Z,5.90
2018-09-05T23:34:28.285Z,6.03
2018-09-05T23:36:55.934Z,5.37
2018-09-05T23:39:24.494Z,6.20
2018-09-05T23:41:52.060Z,6.20
2018-09-05T23:44:19.601Z,6.07
2018-09-05T23:46:47.114Z,5.60
2018-09-05T23:49:14.628Z,5.77
2018-09-05T23:51:42.684Z,6.10
2018-09-05T23:54:10.190Z,6.47
2018-09-05T23:56:37.699Z,5.93
2018-09-05T23:59:06.350Z,6.30
